createdAt,value
2023-04-19T00:00:08.141Z,12.10
2023-04-19T00:02:36.572Z,12.20
2023-04-19T00:05:06.340Z,12.00
2023-04-19T00:07:34.753Z,12.10
2023-04-19T00:10:03.107Z,12.00
2023-04-19T00:12:30.849Z,12.00
2023-04-19T00:14:58.582Z,11.90
2023-04-19T00:17:27.533Z,12.00
2023-04-19T00:19:56.168Z,12.00
2023-04-19T00:22:24.724Z,11.90
2023-04-19T00:24:52.690Z,11.90
2023-04-19T00:27:20.738Z,12.00
2023-04-19T00:29:48.495Z,11.90
2023-04-19T00:32:16.406Z,11.90
2023-04-19T00:37:30.988Z,11.80
2023-04-19T00:39:58.747Z,11.90
2023-04-19T00:42:26.405Z,11.90
2023-04-19T00:44:54.252Z,11.70
2023-04-19T00:47:22.039Z,11.80
2023-04-19T00:49:50.003Z,11.70
2023-04-19T00:52:17.898Z,11.70
2023-04-19T00:54:46.134Z,11.80
2023-04-19T00:57:14.841Z,11.70
2023-04-19T00:59:43.230Z,11.70
2023-04-19T01:02:10.960Z,11.70
2023-04-19T01:04:38.818Z,12.70
2023-04-19T01:07:06.794Z,11.40
2023-04-19T01:09:34.498Z,11.60
2023-04-19T01:12:03.054Z,11.60
2023-04-19T01:14:30.810Z,11.60
2023-04-19T01:16:58.594Z,11.80
2023-04-19T01:19:26.312Z,11.60
2023-04-19T01:21:55.693Z,11.50
2023-04-19T01:24:23.401Z,11.60
2023-04-19T01:26:51.122Z,11.60
2023-04-19T01:29:21.408Z,11.60
2023-04-19T01:31:52.829Z,11.50
2023-04-19T01:34:22.409Z,11.60
2023-04-19T01:36:50.348Z,11.20
2023-04-19T01:39:18.088Z,11.50
2023-04-19T01:41:45.813Z,11.60
2023-04-19T01:44:13.841Z,11.60
2023-04-19T01:46:42.027Z,11.60
2023-04-19T01:49:10.273Z,11.60
2023-04-19T01:51:39.074Z,11.60
2023-04-19T01:54:06.843Z,11.60
2023-04-19T01:56:34.554Z,11.60
2023-04-19T01:59:03.356Z,11.60
2023-04-19T02:04:16.238Z,11.50
2023-04-19T02:06:44.226Z,11.50
2023-04-19T02:09:12.170Z,11.40
2023-04-19T02:11:40.052Z,11.50
2023-04-19T02:14:07.743Z,11.50
2023-04-19T02:16:36.166Z,11.40
2023-04-19T02:19:04.387Z,11.90
2023-04-19T02:21:32.144Z,11.40
2023-04-19T02:24:00.539Z,11.40
2023-04-19T02:26:28.305Z,11.30
2023-04-19T02:28:56.065Z,11.30
2023-04-19T02:31:23.857Z,11.30
2023-04-19T02:33:51.650Z,11.30
2023-04-19T02:39:06.493Z,11.20
2023-04-19T02:41:34.190Z,11.20
2023-04-19T02:44:02.357Z,11.20
2023-04-19T02:46:30.303Z,11.30
2023-04-19T02:49:00.019Z,11.20
2023-04-19T02:51:27.781Z,11.10
2023-04-19T02:56:43.573Z,11.20
2023-04-19T02:59:12.363Z,11.20
2023-04-19T03:01:40.143Z,11.10
2023-04-19T03:04:08.532Z,11.20
2023-04-19T03:06:37.119Z,11.10
2023-04-19T03:09:05.448Z,11.20
2023-04-19T03:11:33.527Z,10.90
2023-04-19T03:14:01.257Z,11.20
2023-04-19T03:16:29.919Z,10.90
2023-04-19T03:18:57.716Z,11.20
2023-04-19T03:21:28.352Z,11.20
2023-04-19T03:23:56.195Z,11.20
2023-04-19T03:26:24.269Z,11.10
2023-04-19T03:28:52.205Z,11.30
2023-04-19T03:31:20.160Z,11.10
2023-04-19T03:33:47.971Z,11.00
2023-04-19T03:36:16.018Z,11.00
2023-04-19T03:38:43.909Z,11.10
2023-04-19T03:41:19.530Z,11.00
2023-04-19T03:43:47.254Z,11.00
2023-04-19T03:46:15.036Z,11.00
2023-04-19T03:48:42.898Z,11.00
2023-04-19T03:51:10.616Z,10.90
2023-04-19T03:53:38.382Z,10.90
2023-04-19T03:56:07.139Z,10.90
2023-04-19T03:58:35.482Z,10.80
2023-04-19T04:03:49.683Z,10.70
2023-04-19T04:06:17.745Z,10.80
2023-04-19T04:08:45.560Z,10.80
2023-04-19T04:11:13.306Z,10.80
2023-04-19T04:13:41.074Z,10.80
2023-04-19T04:16:08.976Z,10.70
2023-04-19T04:18:36.768Z,10.60
2023-04-19T04:21:04.948Z,10.50
2023-04-19T04:23:33.420Z,10.40
2023-04-19T04:26:02.017Z,10.40
2023-04-19T04:28:30.262Z,10.30
2023-04-19T04:30:59.669Z,10.30
2023-04-19T04:33:28.177Z,10.30
2023-04-19T04:35:57.143Z,10.20
2023-04-19T04:38:25.385Z,10.30
2023-04-19T04:40:54.309Z,10.20
2023-04-19T04:43:22.718Z,10.10
2023-04-19T04:45:51.102Z,9.80
2023-04-19T04:48:18.857Z,10.00
2023-04-19T04:50:46.529Z,9.90
2023-04-19T04:53:14.267Z,9.90
2023-04-19T04:55:42.186Z,9.90
2023-04-19T04:58:09.939Z,9.90
2023-04-19T05:00:37.654Z,9.90
2023-04-19T05:03:05.808Z,9.70
2023-04-19T05:05:34.080Z,9.70
2023-04-19T05:08:01.843Z,9.60
2023-04-19T05:10:29.572Z,9.60
2023-04-19T05:12:57.295Z,9.70
2023-04-19T05:15:24.988Z,9.70
2023-04-19T05:17:52.814Z,9.70
2023-04-19T05:20:21.889Z,9.70
2023-04-19T05:22:49.736Z,9.60
2023-04-19T05:25:17.456Z,9.60
2023-04-19T05:27:45.247Z,9.30
2023-04-19T05:30:14.104Z,9.60
2023-04-19T05:32:41.961Z,9.40
2023-04-19T05:35:11.469Z,9.40
2023-04-19T05:37:40.869Z,9.30
2023-04-19T05:40:10.436Z,9.40
2023-04-19T05:42:39.491Z,9.40
2023-04-19T05:47:53.189Z,9.40
2023-04-19T05:50:21.163Z,9.30
2023-04-19T05:52:48.974Z,9.20
2023-04-19T05:55:17.326Z,9.20
2023-04-19T05:57:45.248Z,9.30
2023-04-19T06:00:15.721Z,9.20
2023-04-19T06:02:43.805Z,9.20
2023-04-19T06:05:12.400Z,9.30
2023-04-19T06:07:44.024Z,9.00
2023-04-19T06:10:22.109Z,8.70
2023-04-19T06:12:49.882Z,9.00
2023-04-19T06:15:17.914Z,8.90
2023-04-19T06:17:45.860Z,8.80
2023-04-19T06:20:14.103Z,8.70
2023-04-19T06:22:45.969Z,8.70
2023-04-19T06:25:14.594Z,9.10
2023-04-19T06:27:42.405Z,8.70
2023-04-19T06:30:11.580Z,8.80
2023-04-19T06:32:39.631Z,8.90
2023-04-19T06:35:09.537Z,8.90
2023-04-19T06:37:37.484Z,8.90
2023-04-19T06:42:55.991Z,8.70
2023-04-19T06:45:23.793Z,9.00
2023-04-19T06:47:52.226Z,9.00
2023-04-19T06:50:20.760Z,9.20
2023-04-19T06:52:48.673Z,9.20
2023-04-19T06:55:16.433Z,9.30
2023-04-19T06:57:44.257Z,9.50
2023-04-19T07:00:14.482Z,9.50
2023-04-19T07:02:42.383Z,9.50
2023-04-19T07:05:12.199Z,9.50
2023-04-19T07:07:40.692Z,9.70
2023-04-19T07:10:10.016Z,9.80
2023-04-19T07:12:37.951Z,9.80
2023-04-19T07:15:08.328Z,9.70
2023-04-19T07:17:36.944Z,9.70
2023-04-19T07:20:06.313Z,9.80
2023-04-19T07:22:34.903Z,9.80
2023-04-19T07:25:03.344Z,9.80
2023-04-19T07:30:16.834Z,9.70
2023-04-19T07:32:45.842Z,9.70
2023-04-19T07:35:13.821Z,9.70
2023-04-19T07:37:42.033Z,9.70
2023-04-19T07:40:12.302Z,9.70
2023-04-19T07:42:40.086Z,9.80
2023-04-19T07:45:10.160Z,9.80
2023-04-19T07:47:38.056Z,9.80
2023-04-19T07:50:08.665Z,9.90
2023-04-19T07:52:36.578Z,9.90
2023-04-19T07:57:54.108Z,10.00
2023-04-19T08:00:22.826Z,10.10
2023-04-19T08:02:50.867Z,10.20
2023-04-19T08:05:20.048Z,10.20
2023-04-19T08:07:48.122Z,10.30
2023-04-19T08:10:16.129Z,10.40
2023-04-19T08:12:53.450Z,10.30
2023-04-19T08:16:12.957Z,10.40
2023-04-19T08:18:46.054Z,10.30
2023-04-19T08:21:13.827Z,10.30
2023-04-19T08:23:48.058Z,10.60
2023-04-19T08:26:16.396Z,10.50
2023-04-19T08:28:44.311Z,10.60
2023-04-19T08:31:12.070Z,10.60
2023-04-19T08:33:39.830Z,10.80
2023-04-19T08:36:09.726Z,10.80
2023-04-19T08:38:38.351Z,11.30
2023-04-19T08:41:06.382Z,11.00
2023-04-19T08:43:36.793Z,10.90
2023-04-19T08:46:05.486Z,10.90
2023-04-19T08:48:36.380Z,10.90
2023-04-19T08:51:05.777Z,10.90
2023-04-19T08:53:35.214Z,10.80
2023-04-19T08:56:17.586Z,10.90
2023-04-19T09:01:33.116Z,10.90
2023-04-19T09:04:20.832Z,11.00
2023-04-19T09:06:55.346Z,11.00
2023-04-19T09:09:35.415Z,10.90
2023-04-19T09:12:17.561Z,11.00
2023-04-19T09:14:57.918Z,12.40
2023-04-19T09:17:28.787Z,11.10
2023-04-19T09:19:57.008Z,11.10
2023-04-19T09:22:26.148Z,11.10
2023-04-19T09:27:28.484Z,11.20
2023-04-19T09:29:57.383Z,11.20
2023-04-19T09:32:26.286Z,11.20
2023-04-19T09:34:56.376Z,11.40
2023-04-19T09:37:39.205Z,11.20
2023-04-19T09:40:27.195Z,11.40
2023-04-19T09:45:30.469Z,11.50
2023-04-19T09:48:04.263Z,11.70
2023-04-19T09:50:34.207Z,11.60
2023-04-19T09:53:12.989Z,11.60
2023-04-19T09:55:53.418Z,11.60
2023-04-19T09:58:34.346Z,11.70
2023-04-19T10:01:15.734Z,11.70
2023-04-19T10:03:46.907Z,11.60
2023-04-19T10:06:37.378Z,11.70
2023-04-19T10:09:21.008Z,11.60
2023-04-19T10:11:52.177Z,11.80
2023-04-19T10:14:24.527Z,11.70
2023-04-19T10:16:52.776Z,11.90
2023-04-19T10:19:22.253Z,11.90
2023-04-19T10:21:51.017Z,12.00
2023-04-19T10:24:20.838Z,12.00
2023-04-19T10:29:59.697Z,12.00
2023-04-19T10:32:37.779Z,12.00
2023-04-19T10:38:08.973Z,12.00
2023-04-19T10:40:56.918Z,11.90
2023-04-19T10:43:26.180Z,12.00
2023-04-19T10:45:55.039Z,11.90
2023-04-19T10:48:52.851Z,12.10
2023-04-19T10:51:22.231Z,12.30
2023-04-19T10:54:08.932Z,12.40
2023-04-19T10:57:04.317Z,12.30
2023-04-19T10:59:33.073Z,12.40
2023-04-19T11:02:03.566Z,12.50
2023-04-19T11:05:00.333Z,12.40
2023-04-19T11:07:28.650Z,12.60
2023-04-19T11:09:56.423Z,12.60
2023-04-19T11:12:24.204Z,12.70
2023-04-19T11:14:53.828Z,12.70
2023-04-19T11:17:25.045Z,12.40
2023-04-19T11:22:47.521Z,12.90
2023-04-19T11:25:17.392Z,13.00
2023-04-19T11:27:46.803Z,13.20
2023-04-19T11:30:18.672Z,13.30
2023-04-19T11:32:48.328Z,13.20
2023-04-19T11:35:19.202Z,13.40
2023-04-19T11:37:46.970Z,13.50
2023-04-19T11:40:17.256Z,13.50
2023-04-19T11:42:45.579Z,13.70
2023-04-19T11:45:30.201Z,13.60
2023-04-19T11:47:59.981Z,13.60
2023-04-19T11:50:36.315Z,13.60
2023-04-19T11:53:16.044Z,13.70
2023-04-19T11:55:45.196Z,13.60
2023-04-19T11:58:25.174Z,13.40
2023-04-19T12:00:52.997Z,13.70
2023-04-19T12:03:25.777Z,13.80
2023-04-19T12:05:56.494Z,13.70
2023-04-19T12:08:35.525Z,13.90
2023-04-19T12:11:04.816Z,13.80
2023-04-19T12:13:33.467Z,13.90
2023-04-19T12:16:01.899Z,14.00
2023-04-19T12:21:32.362Z,13.90
2023-04-19T12:24:03.124Z,14.00
2023-04-19T12:26:31.601Z,14.10
2023-04-19T12:29:00.926Z,14.10
2023-04-19T12:31:31.477Z,14.20
2023-04-19T12:34:00.267Z,14.00
2023-04-19T12:36:29.773Z,13.90
2023-04-19T12:38:57.548Z,14.10
2023-04-19T12:43:55.748Z,14.20
2023-04-19T12:46:24.064Z,14.20
2023-04-19T12:48:52.509Z,14.30
2023-04-19T12:51:20.593Z,14.40
2023-04-19T12:53:49.731Z,14.50
2023-04-19T12:56:17.964Z,14.60
2023-04-19T12:58:45.822Z,14.60
2023-04-19T13:01:13.719Z,14.60
2023-04-19T13:03:41.821Z,14.60
2023-04-19T13:06:11.680Z,15.00
2023-04-19T13:08:46.251Z,15.00
2023-04-19T13:11:16.893Z,14.90
2023-04-19T13:13:44.808Z,14.70
2023-04-19T13:16:12.711Z,14.80
2023-04-19T13:18:40.493Z,14.80
2023-04-19T13:21:08.676Z,14.80
2023-04-19T13:23:36.723Z,14.80
2023-04-19T13:26:04.985Z,14.90
2023-04-19T13:28:35.147Z,15.00
2023-04-19T13:31:03.963Z,15.10
2023-04-19T13:33:31.842Z,15.10
2023-04-19T13:35:59.850Z,15.40
2023-04-19T13:38:28.397Z,15.50
2023-04-19T13:40:56.354Z,15.20
2023-04-19T13:46:11.672Z,16.10
2023-04-19T13:48:39.748Z,16.10
2023-04-19T13:51:07.770Z,15.90
2023-04-19T13:53:35.589Z,16.10
2023-04-19T13:56:03.714Z,16.20
2023-04-19T13:58:31.567Z,16.00
2023-04-19T14:00:59.812Z,15.90
2023-04-19T14:03:27.755Z,15.90
2023-04-19T14:05:55.991Z,16.10
2023-04-19T14:08:23.931Z,16.10
2023-04-19T14:10:51.785Z,16.20
2023-04-19T14:13:19.727Z,16.10
2023-04-19T14:15:47.535Z,16.30
2023-04-19T14:18:15.596Z,16.20
2023-04-19T14:23:36.026Z,16.50
2023-04-19T14:26:03.985Z,16.60
2023-04-19T14:28:31.778Z,16.80
2023-04-19T14:30:59.553Z,16.10
2023-04-19T14:33:27.462Z,16.40
2023-04-19T14:35:55.676Z,15.90
2023-04-19T14:38:23.543Z,15.40
2023-04-19T14:40:51.337Z,14.90
2023-04-19T14:46:09.146Z,15.20
2023-04-19T14:48:37.056Z,15.10
2023-04-19T14:51:05.540Z,15.00
2023-04-19T14:53:34.123Z,15.10
2023-04-19T14:56:05.131Z,15.30
2023-04-19T14:58:32.851Z,15.30
2023-04-19T15:01:09.775Z,15.60
2023-04-19T15:03:37.835Z,15.60
2023-04-19T15:06:07.596Z,15.60
2023-04-19T15:08:35.615Z,15.70
2023-04-19T15:11:03.602Z,15.30
2023-04-19T15:16:17.384Z,14.90
2023-04-19T15:18:45.081Z,15.00
2023-04-19T15:21:12.989Z,15.10
2023-04-19T15:23:41.719Z,15.00
2023-04-19T15:26:10.205Z,15.10
2023-04-19T15:28:38.152Z,15.10
2023-04-19T15:31:07.479Z,15.30
2023-04-19T15:33:36.211Z,15.60
2023-04-19T15:36:04.797Z,15.80
2023-04-19T15:38:32.831Z,15.50
2023-04-19T15:41:01.039Z,15.30
2023-04-19T15:43:28.859Z,15.30
2023-04-19T15:45:56.574Z,15.20
2023-04-19T15:48:24.345Z,15.20
2023-04-19T15:50:52.087Z,15.30
2023-04-19T15:53:19.878Z,15.30
2023-04-19T15:55:47.739Z,15.40
2023-04-19T15:58:15.960Z,14.90
2023-04-19T16:00:44.104Z,15.30
2023-04-19T16:03:12.062Z,15.20
2023-04-19T16:05:40.239Z,15.20
2023-04-19T16:08:09.326Z,15.30
2023-04-19T16:10:38.015Z,15.20
2023-04-19T16:13:06.460Z,15.20
2023-04-19T16:15:34.309Z,15.20
2023-04-19T16:18:02.156Z,15.40
2023-04-19T16:20:30.161Z,15.50
2023-04-19T16:23:02.156Z,15.50
2023-04-19T16:25:30.539Z,15.60
2023-04-19T16:27:58.781Z,15.30
2023-04-19T16:30:26.836Z,15.10
2023-04-19T16:32:56.403Z,15.60
2023-04-19T16:35:27.598Z,15.50
2023-04-19T16:37:57.633Z,15.50
2023-04-19T16:40:28.455Z,15.60
2023-04-19T16:42:57.060Z,15.50
2023-04-19T16:45:25.410Z,15.40
2023-04-19T16:47:55.980Z,15.40
2023-04-19T16:50:25.834Z,15.50
2023-04-19T16:52:53.635Z,15.50
2023-04-19T16:55:21.665Z,15.60
2023-04-19T16:57:50.440Z,15.60
2023-04-19T17:00:19.423Z,15.70
2023-04-19T17:02:47.484Z,15.70
2023-04-19T17:05:18.393Z,15.70
2023-04-19T17:07:46.151Z,15.90
2023-04-19T17:10:16.544Z,15.80
2023-04-19T17:12:44.411Z,15.70
2023-04-19T17:15:12.718Z,15.80
2023-04-19T17:17:42.163Z,15.90
2023-04-19T17:20:12.851Z,16.00
2023-04-19T17:22:40.696Z,16.40
2023-04-19T17:25:09.669Z,16.50
2023-04-19T17:27:39.384Z,16.60
2023-04-19T17:30:12.822Z,16.90
2023-04-19T17:32:41.182Z,17.40
2023-04-19T17:35:10.761Z,17.30
2023-04-19T17:37:40.049Z,17.30
2023-04-19T17:40:11.194Z,17.10
2023-04-19T17:42:39.322Z,17.20
2023-04-19T17:45:10.584Z,16.60
2023-04-19T17:47:38.726Z,16.00
2023-04-19T17:50:09.499Z,15.30
2023-04-19T17:55:10.479Z,14.60
2023-04-19T17:57:39.628Z,14.60
2023-04-19T18:00:11.063Z,14.20
2023-04-19T18:02:39.822Z,14.20
2023-04-19T18:05:12.822Z,14.00
2023-04-19T18:07:43.610Z,13.80
2023-04-19T18:10:11.990Z,13.90
2023-04-19T18:12:40.373Z,13.80
2023-04-19T18:15:10.576Z,13.60
2023-04-19T18:20:08.840Z,13.50
2023-04-19T18:25:05.586Z,13.50
2023-04-19T18:27:33.930Z,13.50
2023-04-19T18:30:03.307Z,13.50
2023-04-19T18:32:32.164Z,13.60
2023-04-19T18:35:00.062Z,13.50
2023-04-19T18:37:27.901Z,13.50
2023-04-19T18:39:56.117Z,13.40
2023-04-19T18:42:24.253Z,13.50
2023-04-19T18:44:54.188Z,13.30
2023-04-19T18:47:24.833Z,13.20
2023-04-19T18:50:04.510Z,12.90
2023-04-19T18:52:34.581Z,13.10
2023-04-19T18:55:02.880Z,13.00
2023-04-19T18:57:34.383Z,12.90
2023-04-19T19:00:04.956Z,12.90
2023-04-19T19:02:35.274Z,12.80
2023-04-19T19:05:07.241Z,12.70
2023-04-19T19:07:37.482Z,12.80
2023-04-19T19:12:40.562Z,12.60
2023-04-19T19:15:10.318Z,12.50
2023-04-19T19:17:38.612Z,12.50
2023-04-19T19:20:09.658Z,12.50
2023-04-19T19:22:37.917Z,12.50
2023-04-19T19:28:07.458Z,12.20
2023-04-19T19:30:38.948Z,12.50
2023-04-19T19:33:06.967Z,12.20
2023-04-19T19:35:34.931Z,12.10
2023-04-19T19:38:03.706Z,12.00
2023-04-19T19:40:32.862Z,12.00
2023-04-19T19:43:01.651Z,11.90
2023-04-19T19:45:30.215Z,11.90
2023-04-19T19:47:58.811Z,11.90
2023-04-19T19:53:00.125Z,12.00
2023-04-19T20:00:55.554Z,11.90
2023-04-19T20:03:36.001Z,11.90
2023-04-19T20:06:35.735Z,11.80
2023-04-19T20:09:43.526Z,11.70
2023-04-19T20:12:12.651Z,11.80
2023-04-19T20:14:40.914Z,11.70
2023-04-19T20:17:08.817Z,11.60
2023-04-19T20:19:36.747Z,11.70
2023-04-19T20:22:04.621Z,11.60
2023-04-19T20:27:26.203Z,11.60
2023-04-19T20:32:43.407Z,11.60
2023-04-19T20:38:01.987Z,11.60
2023-04-19T20:40:31.424Z,11.50
2023-04-19T20:42:59.579Z,11.50
2023-04-19T20:45:28.134Z,11.40
2023-04-19T20:47:57.806Z,11.30
2023-04-19T20:50:25.745Z,11.40
2023-04-19T20:52:53.572Z,11.40
2023-04-19T20:55:21.465Z,11.40
2023-04-19T20:57:49.348Z,11.20
2023-04-19T21:00:18.896Z,11.20
2023-04-19T21:02:47.000Z,11.20
2023-04-19T21:05:15.091Z,11.20
2023-04-19T21:07:42.922Z,11.30
2023-04-19T21:10:12.994Z,11.20
2023-04-19T21:12:40.829Z,11.40
2023-04-19T21:15:11.441Z,11.10
2023-04-19T21:17:39.383Z,11.50
2023-04-19T21:20:12.769Z,11.40
2023-04-19T21:22:41.218Z,11.30
2023-04-19T21:25:11.937Z,11.30
2023-04-19T21:27:40.862Z,11.30
2023-04-19T21:30:11.283Z,11.30
2023-04-19T21:32:39.231Z,11.30
2023-04-19T21:37:53.846Z,11.10
2023-04-19T21:40:22.763Z,11.10
2023-04-19T21:45:18.190Z,11.00
2023-04-19T21:47:46.164Z,11.00
2023-04-19T21:50:14.108Z,11.10
2023-04-19T21:52:42.082Z,11.00
2023-04-19T21:55:13.320Z,11.00
2023-04-19T21:57:41.382Z,11.10
2023-04-19T22:00:12.103Z,11.00
2023-04-19T22:02:40.590Z,10.70
2023-04-19T22:05:09.773Z,10.90
2023-04-19T22:07:37.990Z,10.90
2023-04-19T22:10:08.718Z,11.00
2023-04-19T22:12:45.110Z,10.90
2023-04-19T22:15:21.655Z,10.90
2023-04-19T22:17:49.784Z,10.80
2023-04-19T22:20:17.759Z,10.80
2023-04-19T22:22:45.564Z,10.80
2023-04-19T22:25:13.672Z,10.40
2023-04-19T22:27:42.603Z,10.70
2023-04-19T22:30:11.610Z,10.80
2023-04-19T22:35:31.307Z,10.90
2023-04-19T22:37:59.190Z,10.80
2023-04-19T22:40:26.977Z,10.90
2023-04-19T22:42:55.087Z,11.30
2023-04-19T22:45:22.991Z,11.00
2023-04-19T22:47:50.929Z,11.10
2023-04-19T22:50:19.495Z,10.90
2023-04-19T22:52:47.593Z,10.80
2023-04-19T22:55:15.426Z,10.90
2023-04-19T22:57:43.308Z,10.80
2023-04-19T23:03:00.598Z,10.70
2023-04-19T23:05:29.021Z,10.70
2023-04-19T23:10:45.950Z,10.50
2023-04-19T23:13:15.019Z,10.60
2023-04-19T23:15:43.335Z,10.60
2023-04-19T23:18:11.201Z,10.60
2023-04-19T23:20:38.936Z,10.80
2023-04-19T23:23:08.571Z,10.50
2023-04-19T23:25:37.022Z,10.50
2023-04-19T23:28:04.980Z,10.60
2023-04-19T23:30:32.785Z,10.60
2023-04-19T23:33:00.576Z,10.70
2023-04-19T23:35:28.792Z,10.50
2023-04-19T23:37:56.642Z,10.70
2023-04-19T23:40:24.607Z,10.70
2023-04-19T23:45:39.817Z,10.50
2023-04-19T23:48:07.519Z,10.40
2023-04-19T23:50:35.351Z,10.40
2023-04-19T23:53:03.730Z,10.40
2023-04-19T23:55:31.503Z,10.40
2023-04-19T23:57:59.222Z,10.30
